CYXX

Abbotsford Airport

Abbotsford, , Canada
METAR CYXX 201300Z 31002KT 1/8SM R07/0900FT/N FG VV001 03/03 A3026 RMK FG8 SLP249
Observed Flight Rules
Oct-20 @ 13:00 UTC (34 minutes ago) Instrument Flight Rules
Wind Visibility Clouds Conditions
310° at 2 knots 0.1 miles
  • Vertical visibility at 100' AGL
  • Fog
Temperatures Readings
Current 3°C / 37°F
Dewpoint 3°C / 37°F
Humidity 100%
Altimeter 30.26" Hg
Pressure 1024.9 hPa
Elevation 58
METAR CYXX 201300Z 31002KT 1/8SM R07/0900FT/N FG VV001 03/03 A3026 RMK FG8 SLP249
Observed Flight Rules
Oct-20 @ 13:00 UTC
(34 minutes ago)
LIFR
Wind Visibility
310° at 2 knots 0.1 miles
Clouds
  • Vertical visibility at 100' AGL
Conditions
  • Fog
Temperature Dewpoint
3°C / 37°F 3°C / 37°F
Humidity Altimeter Pressure
100% 30.26" Hg 1024.9 hPa